sensor_id;sensor_type;location;lat;lon;timestamp;pressure;altitude;pressure_sealevel;temperature;humidity
41254;BME280;26987;59.928;30.306;2023-08-12T00:01:42;101793.63;;;17.46;92.92
41254;BME280;26987;59.928;30.306;2023-08-12T00:04:10;101791.38;;;17.43;93.03
41254;BME280;26987;59.928;30.306;2023-08-12T00:06:43;101790.91;;;17.46;92.39
41254;BME280;26987;59.928;30.306;2023-08-12T00:09:10;101796.13;;;17.48;92.63
41254;BME280;26987;59.928;30.306;2023-08-12T00:11:38;101800.94;;;17.46;92.51
41254;BME280;26987;59.928;30.306;2023-08-12T00:14:06;101795.28;;;17.47;92.29
41254;BME280;26987;59.928;30.306;2023-08-12T00:16:34;101798.16;;;17.52;92.13
41254;BME280;26987;59.928;30.306;2023-08-12T00:19:02;101797.69;;;17.56;91.99
41254;BME280;26987;59.928;30.306;2023-08-12T00:21:30;101790.00;;;17.52;91.35
41254;BME280;26987;59.928;30.306;2023-08-12T00:23:59;101799.50;;;17.62;90.57
41254;BME280;26987;59.928;30.306;2023-08-12T00:26:27;101781.44;;;17.56;90.55
41254;BME280;26987;59.928;30.306;2023-08-12T00:28:55;101778.72;;;17.56;90.23
41254;BME280;26987;59.928;30.306;2023-08-12T00:31:23;101776.97;;;17.61;90.00
41254;BME280;26987;59.928;30.306;2023-08-12T00:33:51;101777.31;;;17.53;89.59
41254;BME280;26987;59.928;30.306;2023-08-12T00:36:18;101778.44;;;17.45;89.53
41254;BME280;26987;59.928;30.306;2023-08-12T00:38:47;101772.41;;;17.43;89.68
41254;BME280;26987;59.928;30.306;2023-08-12T00:41:17;101786.56;;;17.45;88.79
41254;BME280;26987;59.928;30.306;2023-08-12T00:43:45;101781.59;;;17.42;88.68
41254;BME280;26987;59.928;30.306;2023-08-12T00:46:13;101782.28;;;17.37;89.17
41254;BME280;26987;59.928;30.306;2023-08-12T00:48:41;101783.94;;;17.38;88.58
41254;BME280;26987;59.928;30.306;2023-08-12T00:51:09;101784.16;;;17.37;87.60
41254;BME280;26987;59.928;30.306;2023-08-12T00:53:38;101753.53;;;17.18;87.03
41254;BME280;26987;59.928;30.306;2023-08-12T00:56:06;101779.78;;;17.36;86.53
41254;BME280;26987;59.928;30.306;2023-08-12T00:58:35;101782.50;;;17.36;85.59
41254;BME280;26987;59.928;30.306;2023-08-12T01:01:04;101775.22;;;17.36;84.95
41254;BME280;26987;59.928;30.306;2023-08-12T01:03:32;101789.28;;;17.45;84.28
41254;BME280;26987;59.928;30.306;2023-08-12T01:06:00;101791.38;;;17.43;83.83
41254;BME280;26987;59.928;30.306;2023-08-12T01:08:30;101784.53;;;17.40;83.61
41254;BME280;26987;59.928;30.306;2023-08-12T01:11:03;101782.41;;;17.43;83.66
41254;BME280;26987;59.928;30.306;2023-08-12T01:13:42;101785.50;;;17.46;83.48
41254;BME280;26987;59.928;30.306;2023-08-12T01:16:13;101787.03;;;17.42;82.90
41254;BME280;26987;59.928;30.306;2023-08-12T01:18:43;101782.41;;;17.43;83.12
41254;BME280;26987;59.928;30.306;2023-08-12T01:21:15;101779.34;;;17.39;82.63
41254;BME280;26987;59.928;30.306;2023-08-12T01:23:46;101791.38;;;17.43;82.84
41254;BME280;26987;59.928;30.306;2023-08-12T01:26:14;101783.34;;;17.36;81.93
41254;BME280;26987;59.928;30.306;2023-08-12T01:28:43;101781.00;;;17.40;81.80
41254;BME280;26987;59.928;30.306;2023-08-12T01:31:12;101772.13;;;17.33;81.59
41254;BME280;26987;59.928;30.306;2023-08-12T01:33:46;101777.09;;;17.36;81.51
41254;BME280;26987;59.928;30.306;2023-08-12T01:36:19;101764.66;;;17.28;81.73
41254;BME280;26987;59.928;30.306;2023-08-12T01:38:51;101767.38;;;17.28;81.64
41254;BME280;26987;59.928;30.306;2023-08-12T01:41:20;101751.22;;;17.21;81.73
41254;BME280;26987;59.928;30.306;2023-08-12T01:43:50;101759.91;;;17.23;81.54
41254;BME280;26987;59.928;30.306;2023-08-12T01:46:17;101749.97;;;17.17;81.79
41254;BME280;26987;59.928;30.306;2023-08-12T01:48:45;101750.66;;;17.12;81.77
41254;BME280;26987;59.928;30.306;2023-08-12T01:51:13;101755.72;;;17.09;81.91
41254;BME280;26987;59.928;30.306;2023-08-12T01:53:42;101759.50;;;17.08;82.12
41254;BME280;26987;59.928;30.306;2023-08-12T01:56:11;101749.88;;;17.05;82.07
41254;BME280;26987;59.928;30.306;2023-08-12T01:58:39;101753.44;;;17.06;81.53
41254;BME280;26987;59.928;30.306;2023-08-12T02:01:07;101750.34;;;17.02;81.50
41254;BME280;26987;59.928;30.306;2023-08-12T02:03:35;101755.53;;;17.03;81.03
41254;BME280;26987;59.928;30.306;2023-08-12T02:06:03;101757.88;;;17.00;80.84
41254;BME280;26987;59.928;30.306;2023-08-12T02:08:30;101762.47;;;16.99;80.76
41254;BME280;26987;59.928;30.306;2023-08-12T02:10:58;101759.75;;;16.99;80.66
41254;BME280;26987;59.928;30.306;2023-08-12T02:13:27;101761.47;;;16.94;80.47
41254;BME280;26987;59.928;30.306;2023-08-12T02:15:55;101765.03;;;16.94;81.09
41254;BME280;26987;59.928;30.306;2023-08-12T02:18:23;101750.13;;;16.85;81.06
41254;BME280;26987;59.928;30.306;2023-08-12T02:20:51;101759.88;;;16.86;81.44
41254;BME280;26987;59.928;30.306;2023-08-12T02:23:19;101754.47;;;16.86;81.71
41254;BME280;26987;59.928;30.306;2023-08-12T02:25:47;101758.47;;;16.83;82.23
41254;BME280;26987;59.928;30.306;2023-08-12T02:28:14;101748.69;;;16.82;82.51
41254;BME280;26987;59.928;30.306;2023-08-12T02:30:44;101754.69;;;16.84;82.40
41254;BME280;26987;59.928;30.306;2023-08-12T02:33:11;101748.00;;;16.87;81.87
41254;BME280;26987;59.928;30.306;2023-08-12T02:35:39;101750.41;;;16.95;81.45
41254;BME280;26987;59.928;30.306;2023-08-12T02:38:07;101751.16;;;17.02;80.91
41254;BME280;26987;59.928;30.306;2023-08-12T02:40:35;101739.88;;;17.06;79.80
41254;BME280;26987;59.928;30.306;2023-08-12T02:43:03;101743.53;;;17.18;79.20
41254;BME280;26987;59.928;30.306;2023-08-12T02:45:32;101752.63;;;17.24;79.06
41254;BME280;26987;59.928;30.306;2023-08-12T02:48:01;101744.28;;;17.25;78.77
41254;BME280;26987;59.928;30.306;2023-08-12T02:50:29;101743.66;;;17.23;78.12
41254;BME280;26987;59.928;30.306;2023-08-12T02:52:56;101761.66;;;17.36;77.95
41254;BME280;26987;59.928;30.306;2023-08-12T02:55:24;101762.84;;;17.40;77.25
41254;BME280;26987;59.928;30.306;2023-08-12T02:57:52;101759.00;;;17.48;77.07
41254;BME280;26987;59.928;30.306;2023-08-12T03:00:20;101749.81;;;17.49;76.83
41254;BME280;26987;59.928;30.306;2023-08-12T03:02:48;101740.03;;;17.48;76.77
41254;BME280;26987;59.928;30.306;2023-08-12T03:05:19;101756.56;;;17.59;76.97
41254;BME280;26987;59.928;30.306;2023-08-12T03:07:47;101740.59;;;17.50;76.96
41254;BME280;26987;59.928;30.306;2023-08-12T03:10:15;101749.47;;;17.58;76.89
41254;BME280;26987;59.928;30.306;2023-08-12T03:12:43;101755.28;;;17.61;76.78
41254;BME280;26987;59.928;30.306;2023-08-12T03:15:11;101750.19;;;17.53;76.86
41254;BME280;26987;59.928;30.306;2023-08-12T03:17:39;101766.19;;;17.55;77.02
41254;BME280;26987;59.928;30.306;2023-08-12T03:20:09;101763.25;;;17.56;77.18
41254;BME280;26987;59.928;30.306;2023-08-12T03:22:38;101763.97;;;17.51;77.47
41254;BME280;26987;59.928;30.306;2023-08-12T03:25:08;101771.03;;;17.52;77.75
41254;BME280;26987;59.928;30.306;2023-08-12T03:27:37;101770.59;;;17.56;77.67
41254;BME280;26987;59.928;30.306;2023-08-12T03:30:06;101771.09;;;17.64;77.29
41254;BME280;26987;59.928;30.306;2023-08-12T03:32:34;101767.00;;;17.74;77.18
41254;BME280;26987;59.928;30.306;2023-08-12T03:35:02;101772.34;;;17.93;76.69
41254;BME280;26987;59.928;30.306;2023-08-12T03:37:31;101776.91;;;18.11;75.82
41254;BME280;26987;59.928;30.306;2023-08-12T03:40:00;101780.97;;;18.32;75.15
41254;BME280;26987;59.928;30.306;2023-08-12T03:42:30;101774.50;;;18.45;73.94
41254;BME280;26987;59.928;30.306;2023-08-12T03:45:00;101773.69;;;18.69;72.96
41254;BME280;26987;59.928;30.306;2023-08-12T03:47:28;101776.97;;;18.83;72.56
41254;BME280;26987;59.928;30.306;2023-08-12T03:49:57;101777.44;;;18.91;72.02
41254;BME280;26987;59.928;30.306;2023-08-12T03:52:25;101774.38;;;18.88;71.95
41254;BME280;26987;59.928;30.306;2023-08-12T03:54:52;101774.00;;;18.96;71.69
41254;BME280;26987;59.928;30.306;2023-08-12T03:57:23;101769.50;;;19.26;70.31
41254;BME280;26987;59.928;30.306;2023-08-12T03:59:51;101768.06;;;19.23;69.21
41254;BME280;26987;59.928;30.306;2023-08-12T04:02:19;101769.13;;;19.22;69.16
41254;BME280;26987;59.928;30.306;2023-08-12T04:04:46;101775.53;;;19.16;69.22
41254;BME280;26987;59.928;30.306;2023-08-12T04:07:14;101766.56;;;19.03;69.27
41254;BME280;26987;59.928;30.306;2023-08-12T04:09:42;101771.28;;;19.08;69.52
41254;BME280;26987;59.928;30.306;2023-08-12T04:12:10;101770.31;;;19.02;69.73
41254;BME280;26987;59.928;30.306;2023-08-12T04:14:39;101764.88;;;19.02;69.76
41254;BME280;26987;59.928;30.306;2023-08-12T04:17:07;101765.00;;;19.20;69.34
41254;BME280;26987;59.928;30.306;2023-08-12T04:19:35;101774.56;;;19.63;67.71
41254;BME280;26987;59.928;30.306;2023-08-12T04:22:03;101765.94;;;20.13;65.42
41254;BME280;26987;59.928;30.306;2023-08-12T04:24:32;101768.88;;;20.46;63.99
41254;BME280;26987;59.928;30.306;2023-08-12T04:26:59;101755.81;;;20.65;62.80
41254;BME280;26987;59.928;30.306;2023-08-12T04:29:28;101771.75;;;21.13;60.95
41254;BME280;26987;59.928;30.306;2023-08-12T04:31:57;101774.03;;;21.21;60.02
41254;BME280;26987;59.928;30.306;2023-08-12T04:34:25;101770.22;;;21.45;58.93
41254;BME280;26987;59.928;30.306;2023-08-12T04:36:54;101763.03;;;22.59;54.88
41254;BME280;26987;59.928;30.306;2023-08-12T04:39:21;101769.69;;;23.33;51.54
41254;BME280;26987;59.928;30.306;2023-08-12T04:41:52;101774.47;;;24.05;49.44
41254;BME280;26987;59.928;30.306;2023-08-12T04:44:22;101768.97;;;25.34;45.89
41254;BME280;26987;59.928;30.306;2023-08-12T04:46:50;101763.59;;;26.33;43.14
41254;BME280;26987;59.928;30.306;2023-08-12T04:49:20;101766.75;;;26.51;42.78
41254;BME280;26987;59.928;30.306;2023-08-12T04:51:51;101756.78;;;26.30;43.00
41254;BME280;26987;59.928;30.306;2023-08-12T04:54:21;101752.31;;;26.64;42.12
41254;BME280;26987;59.928;30.306;2023-08-12T04:56:49;101760.47;;;27.38;40.80
41254;BME280;26987;59.928;30.306;2023-08-12T04:59:17;101762.38;;;26.99;41.58
41254;BME280;26987;59.928;30.306;2023-08-12T05:01:45;101763.38;;;26.24;43.33
41254;BME280;26987;59.928;30.306;2023-08-12T05:04:13;101754.84;;;25.56;44.92
41254;BME280;26987;59.928;30.306;2023-08-12T05:06:42;101760.22;;;25.31;45.59
41254;BME280;26987;59.928;30.306;2023-08-12T05:09:10;101760.63;;;25.04;46.55
41254;BME280;26987;59.928;30.306;2023-08-12T05:11:39;101752.16;;;24.90;47.01
41254;BME280;26987;59.928;30.306;2023-08-12T05:14:07;101761.00;;;24.55;47.29
41254;BME280;26987;59.928;30.306;2023-08-12T05:16:35;101753.13;;;24.02;49.47
41254;BME280;26987;59.928;30.306;2023-08-12T05:19:04;101759.94;;;23.94;50.29
41254;BME280;26987;59.928;30.306;2023-08-12T05:21:31;101764.34;;;24.16;49.79
41254;BME280;26987;59.928;30.306;2023-08-12T05:24:01;101758.31;;;24.29;49.28
41254;BME280;26987;59.928;30.306;2023-08-12T05:26:30;101745.97;;;24.53;48.24
41254;BME280;26987;59.928;30.306;2023-08-12T05:28:58;101763.13;;;24.95;47.62
41254;BME280;26987;59.928;30.306;2023-08-12T05:31:25;101760.63;;;25.94;45.29
41254;BME280;26987;59.928;30.306;2023-08-12T05:33:53;101761.81;;;27.21;42.53
41254;BME280;26987;59.928;30.306;2023-08-12T05:36:21;101761.50;;;28.61;39.08
41254;BME280;26987;59.928;30.306;2023-08-12T05:38:49;101761.72;;;29.90;36.85
41254;BME280;26987;59.928;30.306;2023-08-12T05:41:18;101762.56;;;31.21;34.10
41254;BME280;26987;59.928;30.306;2023-08-12T05:43:47;101761.16;;;32.33;32.35
41254;BME280;26987;59.928;30.306;2023-08-12T05:46:15;101760.59;;;32.79;31.13
41254;BME280;26987;59.928;30.306;2023-08-12T05:48:43;101763.03;;;33.32;30.34
41254;BME280;26987;59.928;30.306;2023-08-12T05:51:11;101762.91;;;33.84;29.75
41254;BME280;26987;59.928;30.306;2023-08-12T05:53:38;101753.84;;;33.75;30.02
41254;BME280;26987;59.928;30.306;2023-08-12T05:56:06;101757.78;;;34.20;29.19
41254;BME280;26987;59.928;30.306;2023-08-12T05:58:35;101753.16;;;33.56;29.55
41254;BME280;26987;59.928;30.306;2023-08-12T06:01:03;101747.31;;;33.37;29.51
41254;BME280;26987;59.928;30.306;2023-08-12T06:03:31;101744.78;;;33.44;29.71
41254;BME280;26987;59.928;30.306;2023-08-12T06:05:59;101732.19;;;33.80;28.97
41254;BME280;26987;59.928;30.306;2023-08-12T06:08:27;101730.53;;;34.26;28.54
41254;BME280;26987;59.928;30.306;2023-08-12T06:10:54;101735.44;;;33.82;28.97
41254;BME280;26987;59.928;30.306;2023-08-12T06:13:22;101723.97;;;33.50;29.51
41254;BME280;26987;59.928;30.306;2023-08-12T06:15:52;101733.38;;;34.04;28.97
41254;BME280;26987;59.928;30.306;2023-08-12T06:18:19;101736.69;;;34.56;28.11
41254;BME280;26987;59.928;30.306;2023-08-12T06:20:47;101742.72;;;34.33;28.09
41254;BME280;26987;59.928;30.306;2023-08-12T06:23:15;101738.88;;;34.26;27.54
41254;BME280;26987;59.928;30.306;2023-08-12T06:25:43;101742.25;;;34.19;26.90
41254;BME280;26987;59.928;30.306;2023-08-12T06:28:11;101744.75;;;34.12;27.39
41254;BME280;26987;59.928;30.306;2023-08-12T06:30:39;101744.19;;;33.59;27.39
41254;BME280;26987;59.928;30.306;2023-08-12T06:33:08;101740.16;;;32.15;30.00
41254;BME280;26987;59.928;30.306;2023-08-12T06:35:36;101741.69;;;30.88;32.21
41254;BME280;26987;59.928;30.306;2023-08-12T06:38:06;101741.53;;;30.93;32.06
41254;BME280;26987;59.928;30.306;2023-08-12T06:40:37;101736.13;;;31.85;30.51
41254;BME280;26987;59.928;30.306;2023-08-12T06:43:05;101750.84;;;32.34;29.99
41254;BME280;26987;59.928;30.306;2023-08-12T06:45:33;101750.13;;;32.46;29.61
41254;BME280;26987;59.928;30.306;2023-08-12T06:48:01;101758.59;;;32.58;29.65
41254;BME280;26987;59.928;30.306;2023-08-12T06:50:30;101755.31;;;32.17;30.26
41254;BME280;26987;59.928;30.306;2023-08-12T06:52:59;101747.66;;;32.23;29.94
41254;BME280;26987;59.928;30.306;2023-08-12T06:55:27;101752.28;;;32.01;29.84
41254;BME280;26987;59.928;30.306;2023-08-12T06:57:55;101753.59;;;31.86;30.41
41254;BME280;26987;59.928;30.306;2023-08-12T07:00:23;101755.25;;;31.25;31.41
41254;BME280;26987;59.928;30.306;2023-08-12T07:02:50;101753.50;;;30.71;31.83
41254;BME280;26987;59.928;30.306;2023-08-12T07:05:18;101746.25;;;30.12;33.20
41254;BME280;26987;59.928;30.306;2023-08-12T07:07:48;101754.56;;;29.66;34.24
41254;BME280;26987;59.928;30.306;2023-08-12T07:10:16;101750.00;;;29.24;33.84
41254;BME280;26987;59.928;30.306;2023-08-12T07:12:44;101751.28;;;29.04;33.68
41254;BME280;26987;59.928;30.306;2023-08-12T07:15:12;101756.19;;;28.17;35.92
41254;BME280;26987;59.928;30.306;2023-08-12T07:17:39;101756.22;;;27.84;36.86
41254;BME280;26987;59.928;30.306;2023-08-12T07:20:08;101759.38;;;27.77;37.26
41254;BME280;26987;59.928;30.306;2023-08-12T07:22:35;101742.94;;;27.33;37.75
41254;BME280;26987;59.928;30.306;2023-08-12T07:25:05;101742.88;;;27.14;38.44
41254;BME280;26987;59.928;30.306;2023-08-12T07:27:33;101752.69;;;27.01;39.40
41254;BME280;26987;59.928;30.306;2023-08-12T07:30:02;101744.28;;;26.68;39.92
41254;BME280;26987;59.928;30.306;2023-08-12T07:32:31;101765.34;;;26.53;40.43
41254;BME280;26987;59.928;30.306;2023-08-12T07:34:58;101754.97;;;26.45;40.79
41254;BME280;26987;59.928;30.306;2023-08-12T07:37:26;101752.19;;;26.50;41.45
41254;BME280;26987;59.928;30.306;2023-08-12T07:39:54;101755.41;;;26.28;41.10
41254;BME280;26987;59.928;30.306;2023-08-12T07:42:23;101769.44;;;26.26;41.26
41254;BME280;26987;59.928;30.306;2023-08-12T07:44:51;101759.41;;;26.11;41.52
41254;BME280;26987;59.928;30.306;2023-08-12T07:47:19;101758.66;;;25.65;42.61
41254;BME280;26987;59.928;30.306;2023-08-12T07:49:47;101764.25;;;25.44;43.66
41254;BME280;26987;59.928;30.306;2023-08-12T07:52:15;101757.41;;;25.42;43.39
41254;BME280;26987;59.928;30.306;2023-08-12T07:54:42;101757.53;;;25.16;44.19
41254;BME280;26987;59.928;30.306;2023-08-12T07:57:10;101735.38;;;25.02;43.73
41254;BME280;26987;59.928;30.306;2023-08-12T07:59:39;101758.06;;;25.23;44.50
41254;BME280;26987;59.928;30.306;2023-08-12T08:02:07;101752.41;;;24.99;44.64
41254;BME280;26987;59.928;30.306;2023-08-12T08:04:35;101736.78;;;24.99;44.61
41254;BME280;26987;59.928;30.306;2023-08-12T08:07:03;101763.94;;;24.85;45.67
41254;BME280;26987;59.928;30.306;2023-08-12T08:09:31;101757.28;;;25.12;45.29
41254;BME280;26987;59.928;30.306;2023-08-12T08:12:00;101753.50;;;25.03;45.00
41254;BME280;26987;59.928;30.306;2023-08-12T08:14:28;101762.53;;;25.09;45.84
41254;BME280;26987;59.928;30.306;2023-08-12T08:16:57;101760.88;;;25.08;46.10
41254;BME280;26987;59.928;30.306;2023-08-12T08:19:25;101760.94;;;24.97;45.64
41254;BME280;26987;59.928;30.306;2023-08-12T08:21:53;101757.94;;;24.88;46.14
41254;BME280;26987;59.928;30.306;2023-08-12T08:24:20;101769.81;;;24.47;46.75
41254;BME280;26987;59.928;30.306;2023-08-12T08:26:48;101760.53;;;24.17;47.68
41254;BME280;26987;59.928;30.306;2023-08-12T08:29:16;101767.66;;;24.18;48.15
41254;BME280;26987;59.928;30.306;2023-08-12T08:31:44;101758.06;;;24.21;48.72
41254;BME280;26987;59.928;30.306;2023-08-12T08:34:14;101770.59;;;24.58;47.95
41254;BME280;26987;59.928;30.306;2023-08-12T08:36:42;101769.47;;;24.80;48.30
41254;BME280;26987;59.928;30.306;2023-08-12T08:39:10;101765.06;;;24.89;47.01
41254;BME280;26987;59.928;30.306;2023-08-12T08:41:39;101774.63;;;25.02;46.68
41254;BME280;26987;59.928;30.306;2023-08-12T08:44:08;101779.31;;;24.86;46.47
41254;BME280;26987;59.928;30.306;2023-08-12T08:46:36;101749.53;;;24.43;47.50
41254;BME280;26987;59.928;30.306;2023-08-12T08:49:04;101770.41;;;24.23;47.97
41254;BME280;26987;59.928;30.306;2023-08-12T08:51:34;101775.31;;;24.37;47.99
41254;BME280;26987;59.928;30.306;2023-08-12T08:54:03;101774.19;;;24.53;47.44
41254;BME280;26987;59.928;30.306;2023-08-12T08:56:32;101776.56;;;24.86;47.22
41254;BME280;26987;59.928;30.306;2023-08-12T08:59:00;101767.53;;;24.91;46.25
41254;BME280;26987;59.928;30.306;2023-08-12T09:01:28;101785.59;;;25.02;46.63
41254;BME280;26987;59.928;30.306;2023-08-12T09:03:57;101768.06;;;24.98;46.74
41254;BME280;26987;59.928;30.306;2023-08-12T09:06:25;101749.41;;;24.90;46.04
41254;BME280;26987;59.928;30.306;2023-08-12T09:08:55;101768.56;;;25.05;45.99
41254;BME280;26987;59.928;30.306;2023-08-12T09:11:24;101784.09;;;25.26;44.86
41254;BME280;26987;59.928;30.306;2023-08-12T09:13:52;101778.31;;;25.27;45.23
41254;BME280;26987;59.928;30.306;2023-08-12T09:16:20;101778.59;;;25.36;44.91
41254;BME280;26987;59.928;30.306;2023-08-12T09:18:54;101779.38;;;25.37;43.91
41254;BME280;26987;59.928;30.306;2023-08-12T09:21:23;101776.69;;;25.31;42.45
41254;BME280;26987;59.928;30.306;2023-08-12T09:23:50;101783.03;;;25.22;42.01
41254;BME280;26987;59.928;30.306;2023-08-12T09:26:20;101785.44;;;25.34;41.46
41254;BME280;26987;59.928;30.306;2023-08-12T09:28:48;101775.56;;;25.38;39.88
41254;BME280;26987;59.928;30.306;2023-08-12T09:31:24;101792.53;;;25.45;40.91
41254;BME280;26987;59.928;30.306;2023-08-12T09:33:53;101743.03;;;25.10;40.98
41254;BME280;26987;59.928;30.306;2023-08-12T09:36:22;101742.16;;;25.20;41.69
41254;BME280;26987;59.928;30.306;2023-08-12T09:38:51;101772.25;;;25.36;42.20
41254;BME280;26987;59.928;30.306;2023-08-12T09:41:22;101696.22;;;24.91;40.36
41254;BME280;26987;59.928;30.306;2023-08-12T09:43:51;101787.28;;;25.49;40.20
41254;BME280;26987;59.928;30.306;2023-08-12T09:46:21;101776.44;;;25.73;40.51
41254;BME280;26987;59.928;30.306;2023-08-12T09:48:51;101783.63;;;25.69;40.27
41254;BME280;26987;59.928;30.306;2023-08-12T09:51:19;101779.97;;;25.79;40.31
41254;BME280;26987;59.928;30.306;2023-08-12T09:53:48;101785.16;;;25.86;40.47
41254;BME280;26987;59.928;30.306;2023-08-12T09:56:18;101791.13;;;25.93;40.03
41254;BME280;26987;59.928;30.306;2023-08-12T09:58:50;101782.91;;;25.88;39.84
41254;BME280;26987;59.928;30.306;2023-08-12T10:01:19;101787.16;;;25.75;39.76
41254;BME280;26987;59.928;30.306;2023-08-12T10:03:49;101785.72;;;25.82;40.64
41254;BME280;26987;59.928;30.306;2023-08-12T10:06:18;101780.75;;;25.85;40.00
41254;BME280;26987;59.928;30.306;2023-08-12T10:08:46;101775.25;;;25.85;39.89
41254;BME280;26987;59.928;30.306;2023-08-12T10:11:14;101760.75;;;25.79;40.18
41254;BME280;26987;59.928;30.306;2023-08-12T10:13:42;101779.16;;;25.78;39.86
41254;BME280;26987;59.928;30.306;2023-08-12T10:16:12;101774.84;;;25.67;40.54
41254;BME280;26987;59.928;30.306;2023-08-12T10:18:41;101770.00;;;25.48;40.06
41254;BME280;26987;59.928;30.306;2023-08-12T10:21:10;101763.75;;;25.37;40.55
41254;BME280;26987;59.928;30.306;2023-08-12T10:23:41;101767.91;;;25.29;41.01
41254;BME280;26987;59.928;30.306;2023-08-12T10:26:09;101775.59;;;25.27;41.19
41254;BME280;26987;59.928;30.306;2023-08-12T10:28:37;101781.06;;;25.32;40.65
41254;BME280;26987;59.928;30.306;2023-08-12T10:31:05;101767.06;;;25.34;40.56
41254;BME280;26987;59.928;30.306;2023-08-12T10:33:37;101771.94;;;25.42;40.29
41254;BME280;26987;59.928;30.306;2023-08-12T10:36:06;101760.28;;;25.16;40.34
41254;BME280;26987;59.928;30.306;2023-08-12T10:38:34;101773.22;;;25.05;40.28
41254;BME280;26987;59.928;30.306;2023-08-12T10:41:17;101772.03;;;25.27;40.58
41254;BME280;26987;59.928;30.306;2023-08-12T10:43:55;101771.69;;;25.39;41.15
41254;BME280;26987;59.928;30.306;2023-08-12T10:46:28;101774.78;;;25.27;42.20
41254;BME280;26987;59.928;30.306;2023-08-12T10:49:01;101768.72;;;25.30;44.50
41254;BME280;26987;59.928;30.306;2023-08-12T10:51:46;101768.78;;;25.19;45.65
41254;BME280;26987;59.928;30.306;2023-08-12T10:54:14;101771.19;;;25.31;44.67
41254;BME280;26987;59.928;30.306;2023-08-12T10:57:05;101775.41;;;25.08;47.23
41254;BME280;26987;59.928;30.306;2023-08-12T10:59:51;101767.22;;;24.98;46.65
41254;BME280;26987;59.928;30.306;2023-08-12T11:02:21;101766.41;;;24.87;45.38
41254;BME280;26987;59.928;30.306;2023-08-12T11:04:54;101765.09;;;24.79;45.16
41254;BME280;26987;59.928;30.306;2023-08-12T11:07:32;101770.00;;;24.82;44.69
41254;BME280;26987;59.928;30.306;2023-08-12T11:10:05;101764.53;;;24.72;44.31
41254;BME280;26987;59.928;30.306;2023-08-12T11:12:38;101768.13;;;24.67;44.96
41254;BME280;26987;59.928;30.306;2023-08-12T11:15:07;101765.94;;;24.64;45.07
41254;BME280;26987;59.928;30.306;2023-08-12T11:17:36;101761.47;;;24.84;44.40
41254;BME280;26987;59.928;30.306;2023-08-12T11:20:07;101767.53;;;24.91;46.10
41254;BME280;26987;59.928;30.306;2023-08-12T11:22:38;101759.59;;;24.89;46.65
41254;BME280;26987;59.928;30.306;2023-08-12T11:25:08;101755.19;;;24.83;47.88
41254;BME280;26987;59.928;30.306;2023-08-12T11:27:41;101742.31;;;24.73;47.13
41254;BME280;26987;59.928;30.306;2023-08-12T11:30:11;101768.34;;;24.81;48.29
41254;BME280;26987;59.928;30.306;2023-08-12T11:32:40;101762.59;;;24.88;48.94
41254;BME280;26987;59.928;30.306;2023-08-12T11:35:09;101768.06;;;24.93;50.13
41254;BME280;26987;59.928;30.306;2023-08-12T11:37:39;101745.13;;;24.58;50.56
41254;BME280;26987;59.928;30.306;2023-08-12T11:40:09;101768.13;;;24.67;51.77
41254;BME280;26987;59.928;30.306;2023-08-12T11:42:41;101754.44;;;24.62;51.84
41254;BME280;26987;59.928;30.306;2023-08-12T11:45:09;101761.25;;;24.64;51.29
41254;BME280;26987;59.928;30.306;2023-08-12T11:47:39;101761.81;;;24.61;48.43
41254;BME280;26987;59.928;30.306;2023-08-12T11:50:10;101754.19;;;24.53;51.28
41254;BME280;26987;59.928;30.306;2023-08-12T11:52:39;101774.47;;;24.47;52.14
41254;BME280;26987;59.928;30.306;2023-08-12T11:55:08;101761.59;;;24.42;51.87
41254;BME280;26987;59.928;30.306;2023-08-12T11:57:36;101770.31;;;24.60;52.63
41254;BME280;26987;59.928;30.306;2023-08-12T12:00:08;101768.44;;;24.50;53.91
41254;BME280;26987;59.928;30.306;2023-08-12T12:02:44;101754.47;;;24.41;50.59
41254;BME280;26987;59.928;30.306;2023-08-12T12:05:14;101768.72;;;24.53;49.44
41254;BME280;26987;59.928;30.306;2023-08-12T12:07:42;101758.31;;;24.40;51.52
41254;BME280;26987;59.928;30.306;2023-08-12T12:10:13;101757.75;;;24.53;52.67
41254;BME280;26987;59.928;30.306;2023-08-12T12:12:44;101761.59;;;24.47;54.51
41254;BME280;26987;59.928;30.306;2023-08-12T12:15:13;101695.34;;;24.03;54.79
41254;BME280;26987;59.928;30.306;2023-08-12T12:17:42;101752.28;;;24.38;55.37
41254;BME280;26987;59.928;30.306;2023-08-12T12:20:14;101755.59;;;24.40;55.59
41254;BME280;26987;59.928;30.306;2023-08-12T12:22:43;101754.47;;;24.41;55.65
41254;BME280;26987;59.928;30.306;2023-08-12T12:25:12;101761.88;;;24.40;53.97
41254;BME280;26987;59.928;30.306;2023-08-12T12:27:42;101771.44;;;24.48;52.64
41254;BME280;26987;59.928;30.306;2023-08-12T12:30:13;101749.53;;;24.38;51.06
41254;BME280;26987;59.928;30.306;2023-08-12T12:32:41;101757.47;;;24.50;51.01
41254;BME280;26987;59.928;30.306;2023-08-12T12:35:08;101760.78;;;24.52;51.56
41254;BME280;26987;59.928;30.306;2023-08-12T12:37:38;101717.50;;;24.17;52.32
41254;BME280;26987;59.928;30.306;2023-08-12T12:40:07;101749.00;;;24.41;53.31
41254;BME280;26987;59.928;30.306;2023-08-12T12:42:35;101744.03;;;24.48;52.66
41254;BME280;26987;59.928;30.306;2023-08-12T12:45:03;101743.50;;;24.51;52.00
41254;BME280;26987;59.928;30.306;2023-08-12T12:47:31;101738.00;;;24.51;53.13
41254;BME280;26987;59.928;30.306;2023-08-12T12:49:59;101733.88;;;24.59;52.10